createdAt,value
2022-10-14T00:01:22.707Z,45.57
2022-10-14T00:03:51.740Z,47.03
2022-10-14T00:06:22.933Z,46.43
2022-10-14T00:08:50.986Z,45.83
2022-10-14T00:11:22.757Z,48.37
2022-10-14T00:13:51.594Z,46.60
2022-10-14T00:16:22.110Z,48.30
2022-10-14T00:18:50.571Z,48.10
2022-10-14T00:21:18.805Z,48.43
2022-10-14T00:23:47.691Z,49.17
2022-10-14T00:26:18.772Z,50.90
2022-10-14T00:28:48.422Z,52.00
2022-10-14T00:31:16.783Z,51.47
2022-10-14T00:33:48.666Z,52.60
2022-10-14T00:36:18.838Z,52.00
2022-10-14T00:38:47.517Z,51.00
2022-10-14T00:41:18.570Z,49.77
2022-10-14T00:44:01.246Z,51.80
2022-10-14T00:46:32.213Z,51.10
2022-10-14T00:49:07.217Z,52.90
2022-10-14T00:51:37.322Z,52.60
2022-10-14T00:54:05.819Z,52.60
2022-10-14T00:56:34.550Z,53.47
2022-10-14T00:59:07.732Z,51.67
2022-10-14T01:01:36.228Z,52.20
2022-10-14T01:04:04.746Z,55.73
2022-10-14T01:06:42.710Z,53.17
2022-10-14T01:09:20.339Z,55.13
2022-10-14T01:12:16.176Z,54.20
2022-10-14T01:14:52.837Z,55.00
2022-10-14T01:17:36.086Z,55.37
2022-10-14T01:20:40.169Z,54.97
2022-10-14T01:23:33.170Z,54.60
2022-10-14T01:26:17.518Z,53.70
2022-10-14T01:28:52.689Z,53.13
2022-10-14T01:31:25.436Z,55.63
2022-10-14T01:33:58.082Z,55.23
2022-10-14T01:36:32.152Z,52.90
2022-10-14T01:39:08.122Z,53.00
2022-10-14T01:41:40.779Z,54.90
2022-10-14T01:44:12.123Z,55.17
2022-10-14T01:46:47.705Z,52.30
2022-10-14T01:49:20.926Z,54.43
2022-10-14T01:51:53.742Z,54.03
2022-10-14T01:54:27.407Z,54.97
2022-10-14T01:56:59.379Z,56.50
2022-10-14T01:59:28.493Z,54.33
2022-10-14T02:01:59.062Z,55.33
2022-10-14T02:04:27.184Z,52.90
2022-10-14T02:07:04.411Z,57.20
2022-10-14T02:09:39.411Z,57.13
2022-10-14T02:12:19.882Z,54.97
2022-10-14T02:14:57.586Z,55.10
2022-10-14T02:17:34.099Z,56.23
2022-10-14T02:20:07.078Z,56.10
2022-10-14T02:22:39.303Z,56.30
2022-10-14T02:25:14.138Z,57.83
2022-10-14T02:27:44.676Z,55.07
2022-10-14T02:30:14.324Z,54.83
2022-10-14T02:32:44.654Z,55.33
2022-10-14T02:35:17.168Z,55.67
2022-10-14T02:37:49.382Z,55.43
2022-10-14T02:40:22.430Z,55.27
2022-10-14T02:42:50.593Z,55.40
2022-10-14T02:45:20.351Z,55.20
2022-10-14T02:47:49.885Z,55.20
2022-10-14T02:50:19.159Z,55.10
2022-10-14T02:52:47.427Z,58.17
2022-10-14T02:55:15.642Z,58.97
2022-10-14T02:57:45.485Z,55.10
2022-10-14T03:00:14.476Z,56.03
2022-10-14T03:02:44.020Z,55.73
2022-10-14T03:05:13.577Z,57.50
2022-10-14T03:07:41.912Z,58.40
2022-10-14T03:10:13.377Z,58.03
2022-10-14T03:12:41.704Z,57.03
2022-10-14T03:15:17.418Z,56.03
2022-10-14T03:17:45.412Z,56.37
2022-10-14T03:20:18.118Z,57.80
2022-10-14T03:22:52.192Z,56.83
2022-10-14T03:25:20.295Z,56.97
2022-10-14T03:28:03.419Z,57.87
2022-10-14T03:30:41.173Z,57.90
2022-10-14T03:33:15.577Z,58.33
2022-10-14T03:35:51.035Z,57.43
2022-10-14T03:38:24.521Z,57.87
2022-10-14T03:40:54.929Z,57.00
2022-10-14T03:43:23.045Z,59.77
2022-10-14T03:45:56.508Z,59.70
2022-10-14T03:48:26.068Z,57.93
2022-10-14T03:50:59.341Z,60.83
2022-10-14T03:53:27.572Z,58.17
2022-10-14T03:55:56.085Z,60.50
2022-10-14T03:58:24.088Z,59.37
2022-10-14T04:00:58.497Z,60.53
2022-10-14T04:03:35.428Z,60.57
2022-10-14T04:06:05.185Z,60.73
2022-10-14T04:08:33.228Z,61.33
2022-10-14T04:11:14.229Z,59.47
2022-10-14T04:13:42.356Z,62.37
2022-10-14T04:16:12.208Z,61.77
2022-10-14T04:18:59.621Z,62.73
2022-10-14T04:21:29.179Z,60.40
2022-10-14T04:23:58.643Z,58.27
2022-10-14T04:26:38.515Z,58.77
2022-10-14T04:29:13.334Z,59.37
2022-10-14T04:31:52.049Z,60.23
2022-10-14T04:34:20.513Z,61.60
2022-10-14T04:36:50.051Z,61.57
2022-10-14T04:39:42.947Z,59.33
2022-10-14T04:42:11.321Z,61.60
2022-10-14T04:44:39.748Z,61.27
2022-10-14T04:47:07.864Z,61.10
2022-10-14T04:49:35.888Z,60.80
2022-10-14T04:52:12.441Z,59.60
2022-10-14T04:54:55.459Z,60.40
2022-10-14T04:57:34.532Z,58.73
2022-10-14T05:00:03.481Z,58.00
2022-10-14T05:02:46.524Z,57.10
2022-10-14T05:05:15.992Z,57.10
2022-10-14T05:07:48.290Z,55.97
2022-10-14T05:10:26.492Z,56.43
2022-10-14T05:12:55.459Z,53.10
2022-10-14T05:15:26.262Z,53.97
2022-10-14T05:18:04.611Z,53.43
2022-10-14T05:20:51.600Z,52.80
2022-10-14T05:23:25.459Z,53.43
2022-10-14T05:25:54.750Z,49.77
2022-10-14T05:28:24.183Z,50.40
2022-10-14T05:30:52.296Z,50.27
2022-10-14T05:33:21.485Z,51.33
2022-10-14T05:36:04.893Z,51.73
2022-10-14T05:38:36.523Z,51.27
2022-10-14T05:41:05.414Z,52.97
2022-10-14T05:43:33.935Z,52.90
2022-10-14T05:46:05.635Z,56.50
2022-10-14T05:48:38.269Z,53.13
2022-10-14T05:51:07.130Z,54.13
2022-10-14T05:53:39.978Z,54.50
2022-10-14T05:56:13.422Z,55.87
2022-10-14T05:58:42.260Z,59.83
2022-10-14T06:01:12.478Z,58.53
2022-10-14T06:03:42.856Z,58.20
2022-10-14T06:06:14.189Z,59.17
2022-10-14T06:08:45.157Z,59.17
2022-10-14T06:11:13.819Z,56.80
2022-10-14T06:13:42.097Z,57.07
2022-10-14T06:16:12.048Z,59.20
2022-10-14T06:18:40.794Z,59.63
2022-10-14T06:21:09.108Z,58.87
2022-10-14T06:23:37.152Z,59.50
2022-10-14T06:26:09.105Z,58.47
2022-10-14T06:28:37.224Z,61.27
2022-10-14T06:31:06.127Z,59.13
2022-10-14T06:33:35.674Z,58.47
2022-10-14T06:36:04.671Z,60.33
2022-10-14T06:38:32.695Z,59.07
2022-10-14T06:41:01.063Z,59.77
2022-10-14T06:43:30.426Z,60.53
2022-10-14T06:45:59.671Z,58.77
2022-10-14T06:48:28.038Z,58.67
2022-10-14T06:50:57.067Z,59.97
2022-10-14T06:53:25.139Z,58.03
2022-10-14T06:56:00.238Z,56.37
2022-10-14T06:58:30.797Z,56.27
2022-10-14T07:01:03.067Z,58.77
2022-10-14T07:03:31.316Z,55.73
2022-10-14T07:06:05.875Z,54.77
2022-10-14T07:08:38.156Z,55.07
2022-10-14T07:11:09.858Z,53.73
2022-10-14T07:13:43.184Z,55.00
2022-10-14T07:16:16.146Z,55.37
2022-10-14T07:18:44.803Z,53.53
2022-10-14T07:21:12.844Z,53.97
2022-10-14T07:23:40.904Z,53.57
2022-10-14T07:26:08.970Z,54.87
2022-10-14T07:28:37.113Z,52.67
2022-10-14T07:31:08.813Z,52.70
2022-10-14T07:36:14.278Z,54.33
2022-10-14T07:38:44.912Z,53.57
2022-10-14T07:41:18.219Z,51.80
2022-10-14T07:43:47.052Z,50.20
2022-10-14T07:46:17.883Z,49.70
2022-10-14T07:48:56.541Z,47.70
2022-10-14T07:51:25.621Z,48.93
2022-10-14T07:53:53.993Z,48.27
2022-10-14T07:56:22.508Z,45.63
2022-10-14T07:58:50.520Z,45.03
2022-10-14T08:01:20.747Z,45.17
2022-10-14T08:03:49.968Z,47.63
2022-10-14T08:06:18.662Z,46.47
2022-10-14T08:08:46.759Z,44.27
2022-10-14T08:11:16.975Z,50.13
2022-10-14T08:13:46.328Z,41.97
2022-10-14T08:16:21.355Z,43.77
2022-10-14T08:18:49.769Z,44.00
2022-10-14T08:21:18.937Z,41.20
2022-10-14T08:23:47.259Z,41.07
2022-10-14T08:26:24.058Z,40.17
2022-10-14T08:28:52.837Z,40.07
2022-10-14T08:31:22.836Z,39.27
2022-10-14T08:33:50.869Z,39.73
2022-10-14T08:36:20.243Z,36.30
2022-10-14T08:38:48.416Z,36.83
2022-10-14T08:41:33.850Z,36.28
2022-10-14T08:44:13.684Z,35.70
2022-10-14T08:46:51.157Z,37.72
2022-10-14T08:49:27.059Z,36.38
2022-10-14T08:52:01.057Z,36.22
2022-10-14T08:54:37.978Z,37.35
2022-10-14T08:57:13.183Z,37.47
2022-10-14T08:59:43.335Z,38.00
2022-10-14T09:02:35.815Z,35.10
2022-10-14T09:05:05.395Z,36.22
2022-10-14T09:07:36.063Z,37.60
2022-10-14T09:10:08.548Z,36.67
2022-10-14T09:12:37.876Z,37.53
2022-10-14T09:15:13.605Z,34.58
2022-10-14T09:17:45.567Z,36.75
2022-10-14T09:20:20.604Z,38.45
2022-10-14T09:23:00.924Z,34.83
2022-10-14T09:25:31.586Z,33.50
2022-10-14T09:27:59.687Z,35.80
2022-10-14T09:30:31.414Z,36.20
2022-10-14T09:33:01.012Z,33.58
2022-10-14T09:35:33.528Z,35.20
2022-10-14T09:38:01.728Z,35.08
2022-10-14T09:40:33.718Z,32.42
2022-10-14T09:43:06.698Z,33.08
2022-10-14T09:45:50.172Z,32.05
2022-10-14T09:48:26.423Z,32.22
2022-10-14T09:50:56.862Z,30.45
2022-10-14T09:53:30.036Z,32.67
2022-10-14T09:55:59.913Z,30.83
2022-10-14T09:58:32.963Z,31.23
2022-10-14T10:01:03.020Z,28.65
2022-10-14T10:03:35.119Z,28.33
2022-10-14T10:06:06.967Z,28.88
2022-10-14T10:08:37.101Z,27.42
2022-10-14T10:11:08.381Z,27.65
2022-10-14T10:13:40.605Z,28.60
2022-10-14T10:16:19.420Z,25.58
2022-10-14T10:18:49.056Z,25.92
2022-10-14T10:21:20.150Z,31.58
2022-10-14T10:23:54.901Z,27.65
2022-10-14T10:26:27.254Z,27.95
2022-10-14T10:28:58.060Z,23.98
2022-10-14T10:31:44.017Z,22.83
2022-10-14T10:34:53.970Z,21.80
2022-10-14T10:37:30.878Z,22.83
2022-10-14T10:40:32.175Z,22.77
2022-10-14T10:43:36.427Z,22.38
2022-10-14T10:46:30.932Z,21.10
2022-10-14T10:49:06.938Z,19.73
2022-10-14T10:51:42.104Z,20.92
2022-10-14T10:54:25.847Z,21.25
2022-10-14T10:56:58.743Z,21.02
2022-10-14T10:59:38.248Z,22.33
2022-10-14T11:02:33.368Z,24.25
2022-10-14T11:05:10.584Z,23.95
2022-10-14T11:08:08.863Z,24.40
2022-10-14T11:11:02.222Z,23.75
2022-10-14T11:13:43.268Z,34.17
2022-10-14T11:16:16.838Z,26.42
2022-10-14T11:18:49.637Z,21.42
2022-10-14T11:21:27.162Z,23.35
2022-10-14T11:24:07.154Z,22.17
2022-10-14T11:27:00.688Z,22.25
2022-10-14T11:29:46.634Z,23.95
2022-10-14T11:32:23.278Z,20.20
2022-10-14T11:35:07.374Z,19.05
2022-10-14T11:37:48.182Z,19.00
2022-10-14T11:40:25.705Z,17.92
2022-10-14T11:43:08.993Z,19.33
2022-10-14T11:45:47.685Z,19.50
2022-10-14T11:48:26.883Z,17.13
2022-10-14T11:50:59.172Z,16.60
2022-10-14T11:53:43.436Z,17.80
2022-10-14T11:56:29.305Z,18.00
2022-10-14T11:59:03.114Z,17.15
2022-10-14T12:01:35.813Z,18.40
2022-10-14T12:04:17.551Z,19.88
2022-10-14T12:06:50.125Z,19.88
2022-10-14T12:09:25.104Z,18.55
2022-10-14T12:11:59.090Z,18.10
2022-10-14T12:14:33.922Z,17.00
2022-10-14T12:17:05.295Z,18.27
2022-10-14T12:19:33.929Z,16.98
2022-10-14T12:22:10.842Z,16.65
2022-10-14T12:24:43.010Z,16.80
2022-10-14T12:27:15.383Z,16.75
2022-10-14T12:29:47.843Z,17.90
2022-10-14T12:32:24.297Z,17.48
2022-10-14T12:34:54.855Z,16.33
2022-10-14T12:37:51.215Z,17.60
2022-10-14T12:40:29.962Z,17.02
2022-10-14T12:43:05.073Z,17.05
2022-10-14T12:45:35.898Z,16.98
2022-10-14T12:48:08.626Z,16.23
2022-10-14T12:50:39.309Z,17.42
2022-10-14T12:53:16.703Z,18.08
2022-10-14T12:55:51.109Z,18.02
2022-10-14T12:58:26.339Z,17.55
2022-10-14T13:01:01.790Z,17.67
2022-10-14T13:03:33.944Z,18.75
2022-10-14T13:06:36.809Z,18.33
2022-10-14T13:09:35.789Z,20.17
2022-10-14T13:12:42.094Z,19.88
2022-10-14T13:15:49.748Z,19.50
2022-10-14T13:18:52.743Z,19.42
2022-10-14T13:21:52.373Z,21.15
2022-10-14T13:24:28.084Z,21.05
2022-10-14T13:27:16.009Z,21.80
2022-10-14T13:30:02.074Z,22.10
2022-10-14T13:32:41.951Z,22.73
2022-10-14T13:35:22.877Z,22.45
2022-10-14T13:37:57.876Z,22.48
2022-10-14T13:40:30.225Z,23.13
2022-10-14T13:42:59.872Z,23.00
2022-10-14T13:45:38.283Z,23.75
2022-10-14T13:48:16.973Z,23.65
2022-10-14T13:50:48.063Z,24.42
2022-10-14T13:53:17.914Z,24.05
2022-10-14T13:55:51.622Z,25.85
2022-10-14T13:58:24.010Z,23.40
2022-10-14T14:01:01.442Z,25.15
2022-10-14T14:03:35.381Z,24.33
2022-10-14T14:06:10.760Z,25.08
2022-10-14T14:08:46.997Z,23.95
2022-10-14T14:11:20.087Z,23.48
2022-10-14T14:13:58.934Z,22.67
2022-10-14T14:16:32.282Z,22.13
2022-10-14T14:19:10.134Z,22.02
2022-10-14T14:21:39.372Z,23.45
2022-10-14T14:24:18.016Z,22.50
2022-10-14T14:26:54.943Z,22.02
2022-10-14T14:29:28.002Z,22.20
2022-10-14T14:32:12.622Z,22.52
2022-10-14T14:34:45.558Z,21.70
2022-10-14T14:37:47.720Z,23.45
2022-10-14T14:40:19.281Z,22.55
2022-10-14T14:42:49.207Z,23.20
2022-10-14T14:45:21.858Z,21.52
2022-10-14T14:47:54.179Z,22.10
2022-10-14T14:50:32.699Z,24.23
2022-10-14T14:53:04.305Z,23.20
2022-10-14T14:55:43.214Z,23.67
2022-10-14T14:58:35.259Z,23.70
2022-10-14T15:01:04.051Z,23.85
2022-10-14T15:03:34.577Z,24.30
2022-10-14T15:06:06.641Z,25.90
2022-10-14T15:08:38.169Z,23.95
2022-10-14T15:11:06.589Z,25.08
2022-10-14T15:13:48.736Z,24.27
2022-10-14T15:16:40.234Z,25.25
2022-10-14T15:19:35.653Z,24.45
2022-10-14T15:22:32.630Z,26.38
2022-10-14T15:25:03.567Z,26.38
2022-10-14T15:27:42.987Z,25.58
2022-10-14T15:30:36.311Z,26.92
2022-10-14T15:33:14.781Z,27.27
2022-10-14T15:35:43.867Z,27.48
2022-10-14T15:38:16.826Z,29.10
2022-10-14T15:40:46.127Z,28.33
2022-10-14T15:43:17.928Z,29.73
2022-10-14T15:46:11.716Z,29.50
2022-10-14T15:48:39.338Z,30.73
2022-10-14T15:51:07.507Z,32.28
2022-10-14T15:53:36.843Z,33.03
2022-10-14T15:56:04.841Z,31.25
2022-10-14T15:58:33.880Z,33.17
2022-10-14T16:01:02.733Z,33.05
2022-10-14T16:03:34.796Z,33.60
2022-10-14T16:06:11.138Z,34.75
2022-10-14T16:08:41.356Z,35.35
2022-10-14T16:11:18.544Z,36.60
2022-10-14T16:13:46.633Z,37.40
2022-10-14T16:16:16.455Z,37.67
2022-10-14T16:18:44.515Z,39.57
2022-10-14T16:21:16.437Z,40.63
2022-10-14T16:23:45.767Z,42.33
2022-10-14T16:26:14.521Z,40.60
2022-10-14T16:28:42.624Z,42.13
2022-10-14T16:31:13.570Z,42.13
2022-10-14T16:33:44.856Z,42.33
2022-10-14T16:36:15.861Z,44.50
2022-10-14T16:38:45.326Z,47.77
2022-10-14T16:41:13.475Z,46.57
2022-10-14T16:43:41.491Z,48.60
2022-10-14T16:46:15.407Z,49.03
2022-10-14T16:48:44.663Z,49.17
2022-10-14T16:51:12.704Z,49.00
2022-10-14T16:53:45.233Z,50.03
2022-10-14T16:56:34.941Z,54.60
2022-10-14T16:59:03.809Z,52.43
2022-10-14T17:01:32.047Z,52.07
2022-10-14T17:04:00.415Z,52.20
2022-10-14T17:06:28.524Z,52.57
2022-10-14T17:08:56.509Z,54.00
2022-10-14T17:11:27.443Z,54.13
2022-10-14T17:13:58.721Z,53.60
2022-10-14T17:16:28.545Z,53.97
2022-10-14T17:18:56.745Z,54.20
2022-10-14T17:21:28.187Z,54.13
2022-10-14T17:23:57.528Z,51.43
2022-10-14T17:26:27.575Z,52.67
2022-10-14T17:28:55.586Z,52.40
2022-10-14T17:31:24.599Z,53.90
2022-10-14T17:33:53.430Z,52.73
2022-10-14T17:36:23.878Z,54.17
2022-10-14T17:38:52.675Z,52.53
2022-10-14T17:41:20.700Z,53.60
2022-10-14T17:43:52.323Z,52.20
2022-10-14T17:46:23.878Z,52.27
2022-10-14T17:48:53.281Z,52.63
2022-10-14T17:51:23.625Z,52.87
2022-10-14T17:53:54.878Z,54.37
2022-10-14T17:56:22.878Z,54.07
2022-10-14T17:58:55.533Z,54.03
2022-10-14T18:01:36.932Z,53.77
2022-10-14T18:04:06.926Z,55.03
2022-10-14T18:06:37.084Z,55.77
2022-10-14T18:09:07.105Z,57.70
2022-10-14T18:12:03.904Z,56.40
2022-10-14T18:14:30.019Z,56.70
2022-10-14T18:16:59.526Z,56.77
2022-10-14T18:19:28.154Z,56.20
2022-10-14T18:21:56.163Z,55.60
2022-10-14T18:24:24.171Z,55.40
2022-10-14T18:26:52.680Z,55.80
2022-10-14T18:29:20.704Z,53.30
2022-10-14T18:34:27.492Z,54.57
2022-10-14T18:36:55.546Z,53.13
2022-10-14T18:39:23.698Z,53.77
2022-10-14T18:41:51.678Z,53.47
2022-10-14T18:44:19.947Z,51.67
2022-10-14T18:46:48.681Z,50.53
2022-10-14T18:49:18.055Z,52.13
2022-10-14T18:51:46.501Z,52.57
2022-10-14T18:54:16.402Z,55.30
2022-10-14T18:56:45.286Z,55.17
2022-10-14T18:59:14.918Z,55.80
2022-10-14T19:01:43.735Z,55.43
2022-10-14T19:04:13.902Z,57.30
2022-10-14T19:06:44.961Z,56.70
2022-10-14T19:09:13.922Z,56.97
2022-10-14T19:11:43.317Z,57.10
2022-10-14T19:14:11.339Z,56.60
2022-10-14T19:16:40.376Z,56.67
2022-10-14T19:19:11.747Z,56.40
2022-10-14T19:21:40.145Z,55.87
2022-10-14T19:24:11.189Z,54.93
2022-10-14T19:26:41.347Z,52.70
2022-10-14T19:29:11.747Z,54.17
2022-10-14T19:31:40.875Z,53.40
2022-10-14T19:34:12.595Z,54.67
2022-10-14T19:36:41.657Z,55.03
2022-10-14T19:39:14.176Z,55.17
2022-10-14T19:41:44.949Z,54.03
2022-10-14T19:44:14.182Z,53.43
2022-10-14T19:46:42.989Z,53.47
2022-10-14T19:49:13.521Z,54.27
2022-10-14T19:51:41.811Z,53.30
2022-10-14T19:54:12.802Z,52.93
2022-10-14T19:56:40.924Z,53.97
2022-10-14T19:59:09.256Z,54.33
2022-10-14T20:01:37.334Z,54.47
2022-10-14T20:04:05.475Z,53.07
2022-10-14T20:06:35.795Z,52.67
2022-10-14T20:09:04.337Z,53.23
2022-10-14T20:11:34.551Z,50.90
2022-10-14T20:14:02.560Z,50.93
2022-10-14T20:16:30.582Z,50.83
2022-10-14T20:18:58.709Z,50.63
2022-10-14T20:21:26.925Z,49.50
2022-10-14T20:23:54.858Z,50.43
2022-10-14T20:26:23.201Z,51.03
2022-10-14T20:28:52.653Z,50.73
2022-10-14T20:31:25.146Z,49.87
2022-10-14T20:33:53.187Z,51.07
2022-10-14T20:36:23.608Z,50.10
2022-10-14T20:38:52.274Z,48.57
2022-10-14T20:41:22.344Z,49.20
2022-10-14T20:43:52.402Z,49.13
2022-10-14T20:46:21.884Z,49.27
2022-10-14T20:48:55.076Z,43.10
2022-10-14T20:51:23.601Z,48.33
2022-10-14T20:53:58.548Z,47.33
2022-10-14T20:56:31.384Z,48.17
2022-10-14T20:59:02.384Z,48.27
2022-10-14T21:01:31.082Z,47.73
2022-10-14T21:04:01.819Z,48.47
2022-10-14T21:06:30.337Z,48.67
2022-10-14T21:08:58.631Z,47.23
2022-10-14T21:11:28.052Z,47.63
2022-10-14T21:13:58.691Z,46.77
2022-10-14T21:16:30.103Z,48.90
2022-10-14T21:19:00.080Z,47.77
2022-10-14T21:21:31.408Z,48.90
2022-10-14T21:24:00.087Z,48.53
2022-10-14T21:26:28.134Z,48.30
2022-10-14T21:28:56.191Z,49.13
2022-10-14T21:31:24.264Z,50.43
2022-10-14T21:34:02.555Z,49.73
2022-10-14T21:36:33.462Z,50.27
2022-10-14T21:39:01.963Z,50.63
2022-10-14T21:41:29.991Z,49.63
2022-10-14T21:43:59.368Z,49.83
2022-10-14T21:46:28.405Z,49.93
2022-10-14T21:48:58.910Z,50.47
2022-10-14T21:51:29.139Z,50.23
2022-10-14T21:53:57.664Z,50.17
2022-10-14T21:56:27.345Z,49.40
2022-10-14T21:58:55.699Z,51.30
2022-10-14T22:01:26.177Z,51.07
2022-10-14T22:03:54.926Z,51.77
2022-10-14T22:06:24.568Z,48.83
2022-10-14T22:08:54.908Z,50.87
2022-10-14T22:11:25.370Z,48.87
2022-10-14T22:13:55.306Z,48.33
2022-10-14T22:16:24.232Z,50.17
2022-10-14T22:18:53.856Z,49.90
2022-10-14T22:21:25.506Z,52.43
2022-10-14T22:23:53.901Z,54.17
2022-10-14T22:26:24.068Z,54.80
2022-10-14T22:28:58.848Z,55.60
2022-10-14T22:31:28.417Z,54.53
2022-10-14T22:33:56.504Z,58.43
2022-10-14T22:36:28.937Z,55.80
2022-10-14T22:38:58.643Z,57.60
2022-10-14T22:41:30.923Z,56.17
2022-10-14T22:44:02.359Z,58.63
2022-10-14T22:46:32.424Z,58.40
2022-10-14T22:49:01.974Z,57.47
2022-10-14T22:51:33.261Z,56.57
2022-10-14T22:54:01.406Z,58.37
2022-10-14T22:56:31.098Z,61.30
2022-10-14T22:59:00.996Z,60.87
2022-10-14T23:01:29.747Z,59.40
2022-10-14T23:03:58.741Z,58.90
2022-10-14T23:06:27.645Z,59.13
2022-10-14T23:08:59.895Z,57.90
2022-10-14T23:11:29.221Z,60.03
2022-10-14T23:13:58.281Z,58.10
2022-10-14T23:16:29.219Z,58.63
2022-10-14T23:18:59.618Z,58.13
2022-10-14T23:21:29.900Z,59.50
2022-10-14T23:24:00.938Z,59.30
2022-10-14T23:26:31.724Z,59.20
2022-10-14T23:29:00.732Z,58.10
2022-10-14T23:31:30.534Z,61.73
2022-10-14T23:33:59.340Z,62.17
2022-10-14T23:36:27.501Z,61.07
2022-10-14T23:38:55.653Z,61.30
2022-10-14T23:41:25.229Z,62.57
2022-10-14T23:43:53.524Z,61.30
2022-10-14T23:46:21.854Z,62.67
2022-10-14T23:49:01.092Z,63.57
2022-10-14T23:51:36.189Z,64.73
2022-10-14T23:54:04.383Z,63.00
2022-10-14T23:56:33.738Z,65.87
2022-10-14T23:59:01.781Z,65.70
